createdAt,value
2019-02-14T00:00:53.144Z,50.27
2019-02-14T00:03:23.406Z,55.80
2019-02-14T00:05:53.376Z,50.97
2019-02-14T00:08:23.587Z,52.17
2019-02-14T00:10:53.795Z,50.60
2019-02-14T00:13:23.738Z,58.77
2019-02-14T00:15:53.919Z,53.50
2019-02-14T00:18:23.898Z,49.10
2019-02-14T00:20:53.839Z,51.17
2019-02-14T00:23:24.037Z,48.33
2019-02-14T00:25:53.934Z,43.60
2019-02-14T00:28:23.878Z,44.10
2019-02-14T00:30:53.832Z,50.13
2019-02-14T00:33:23.761Z,48.70
2019-02-14T00:35:54.300Z,48.97
2019-02-14T00:38:24.590Z,56.27
2019-02-14T00:40:54.585Z,49.73
2019-02-14T00:43:24.642Z,53.77
2019-02-14T00:45:54.585Z,53.63
2019-02-14T00:48:24.706Z,46.37
2019-02-14T00:50:54.630Z,49.50
2019-02-14T00:53:24.611Z,53.10
2019-02-14T00:55:54.611Z,52.60
2019-02-14T00:58:24.627Z,49.30
2019-02-14T01:00:55.519Z,45.00
2019-02-14T01:03:25.467Z,51.77
2019-02-14T01:05:55.444Z,48.67
2019-02-14T01:08:25.436Z,46.50
2019-02-14T01:10:55.349Z,47.00
2019-02-14T01:13:25.293Z,41.57
2019-02-14T01:15:55.669Z,45.90
2019-02-14T01:18:25.595Z,49.90
2019-02-14T01:20:55.489Z,50.63
2019-02-14T01:23:25.497Z,46.10
2019-02-14T01:25:55.503Z,46.33
2019-02-14T01:28:25.456Z,54.90
2019-02-14T01:30:55.675Z,49.07
2019-02-14T01:33:25.607Z,47.83
2019-02-14T01:35:55.532Z,48.47
2019-02-14T01:38:25.491Z,53.00
2019-02-14T01:40:55.492Z,48.67
2019-02-14T01:43:25.714Z,44.40
2019-02-14T01:45:55.629Z,46.47
2019-02-14T01:48:25.529Z,42.10
2019-02-14T01:50:55.422Z,44.50
2019-02-14T01:53:25.434Z,45.97
2019-02-14T01:55:55.355Z,50.97
2019-02-14T01:58:25.674Z,41.07
2019-02-14T02:00:56.015Z,40.97
2019-02-14T02:03:25.962Z,49.63
2019-02-14T02:05:55.949Z,44.10
2019-02-14T02:08:26.614Z,47.73
2019-02-14T02:10:56.743Z,41.97
2019-02-14T02:13:26.690Z,43.63
2019-02-14T02:15:56.632Z,39.40
2019-02-14T02:18:26.872Z,39.17
2019-02-14T02:20:57.340Z,39.00
2019-02-14T02:23:27.245Z,40.03
2019-02-14T02:25:57.195Z,41.97
2019-02-14T02:28:27.131Z,37.33
2019-02-14T02:30:57.077Z,44.67
2019-02-14T02:33:27.024Z,37.97
2019-02-14T02:36:00.406Z,34.97
2019-02-14T02:38:28.722Z,35.77
2019-02-14T02:40:58.978Z,35.07
2019-02-14T02:43:29.427Z,34.70
2019-02-14T02:45:59.607Z,32.53
2019-02-14T02:48:29.755Z,36.87
2019-02-14T02:50:59.656Z,38.07
2019-02-14T02:53:29.884Z,36.13
2019-02-14T02:56:00.318Z,40.40
2019-02-14T02:58:30.247Z,38.70
2019-02-14T03:01:00.389Z,39.87
2019-02-14T03:03:30.320Z,43.77
2019-02-14T03:06:08.640Z,38.43
2019-02-14T03:08:31.942Z,40.17
2019-02-14T03:11:01.856Z,37.93
2019-02-14T03:13:31.876Z,35.87
2019-02-14T03:16:01.798Z,37.57
2019-02-14T03:18:31.823Z,38.57
2019-02-14T03:21:01.830Z,32.23
2019-02-14T03:23:32.054Z,32.90
2019-02-14T03:26:02.001Z,38.33
2019-02-14T03:28:32.352Z,36.93
2019-02-14T03:31:02.263Z,35.43
2019-02-14T03:33:32.255Z,35.97
2019-02-14T03:36:02.224Z,36.07
2019-02-14T03:38:32.398Z,33.90
2019-02-14T03:41:02.844Z,37.57
2019-02-14T03:43:32.820Z,34.30
2019-02-14T03:46:03.195Z,34.67
2019-02-14T03:48:33.151Z,33.53
2019-02-14T03:51:03.168Z,29.03
2019-02-14T03:53:33.948Z,33.80
2019-02-14T03:56:03.895Z,37.17
2019-02-14T03:58:34.194Z,29.93
2019-02-14T04:01:04.308Z,34.40
2019-02-14T04:03:34.551Z,32.23
2019-02-14T04:06:04.545Z,32.33
2019-02-14T04:08:34.578Z,33.67
2019-02-14T04:11:04.541Z,32.77
2019-02-14T04:13:34.957Z,31.83
2019-02-14T04:16:04.891Z,31.83
2019-02-14T04:18:34.810Z,25.10
2019-02-14T04:21:04.894Z,32.83
2019-02-14T04:23:34.876Z,34.40
2019-02-14T04:26:04.789Z,29.87
2019-02-14T04:28:34.980Z,33.83
2019-02-14T04:31:05.256Z,31.90
2019-02-14T04:33:35.430Z,29.70
2019-02-14T04:36:05.485Z,29.40
2019-02-14T04:38:35.432Z,32.37
2019-02-14T04:41:05.453Z,31.73
2019-02-14T04:43:35.403Z,29.87
2019-02-14T04:46:05.360Z,30.83
2019-02-14T04:48:35.302Z,30.87
2019-02-14T04:51:05.257Z,31.00
2019-02-14T04:53:35.214Z,30.03
2019-02-14T04:56:05.821Z,27.67
2019-02-14T04:58:35.839Z,29.93
2019-02-14T05:01:06.156Z,32.37
2019-02-14T05:03:36.073Z,27.17
2019-02-14T05:06:06.285Z,32.97
2019-02-14T05:08:36.210Z,32.37
2019-02-14T05:11:06.180Z,32.03
2019-02-14T05:13:36.333Z,29.17
2019-02-14T05:16:06.484Z,33.37
2019-02-14T05:18:36.451Z,30.97
2019-02-14T05:21:06.359Z,31.07
2019-02-14T05:23:36.589Z,29.17
2019-02-14T05:26:06.548Z,27.80
2019-02-14T05:28:36.543Z,32.77
2019-02-14T05:31:06.493Z,30.73
2019-02-14T05:33:36.731Z,30.33
2019-02-14T05:36:06.669Z,28.03
2019-02-14T05:38:36.591Z,32.43
2019-02-14T05:41:07.200Z,27.63
2019-02-14T05:43:37.125Z,31.33
2019-02-14T05:46:07.055Z,32.40
2019-02-14T05:48:36.985Z,29.80
2019-02-14T05:51:06.971Z,33.17
2019-02-14T05:53:36.989Z,26.53
2019-02-14T05:56:07.117Z,29.03
2019-02-14T05:58:37.305Z,33.57
2019-02-14T06:01:07.247Z,29.43
2019-02-14T06:03:37.264Z,30.40
2019-02-14T06:06:07.233Z,28.43
2019-02-14T06:08:37.195Z,30.63
2019-02-14T06:11:07.219Z,30.60
2019-02-14T06:13:37.179Z,30.03
2019-02-14T06:16:07.611Z,29.47
2019-02-14T06:18:37.561Z,30.40
2019-02-14T06:21:07.578Z,27.40
2019-02-14T06:23:37.623Z,33.13
2019-02-14T06:26:07.598Z,32.53
2019-02-14T06:28:37.610Z,28.63
2019-02-14T06:31:08.071Z,30.77
2019-02-14T06:33:38.296Z,31.20
2019-02-14T06:36:08.519Z,29.67
2019-02-14T06:38:38.569Z,30.93
2019-02-14T06:41:08.766Z,33.77
2019-02-14T06:43:38.735Z,33.60
2019-02-14T06:46:08.707Z,32.93
2019-02-14T06:48:38.702Z,32.80
2019-02-14T06:51:09.554Z,30.07
2019-02-14T06:53:39.449Z,31.13
2019-02-14T06:56:09.403Z,33.80
2019-02-14T06:58:39.651Z,32.83
2019-02-14T07:01:09.669Z,32.07
2019-02-14T07:03:39.686Z,31.63
2019-02-14T07:06:09.809Z,30.70
2019-02-14T07:08:42.989Z,42.47
2019-02-14T07:11:12.914Z,32.40
2019-02-14T07:13:42.822Z,36.83
2019-02-14T07:16:12.802Z,33.87
2019-02-14T07:18:42.718Z,30.63
2019-02-14T07:21:12.641Z,34.47
2019-02-14T07:23:42.573Z,31.77
2019-02-14T07:26:12.515Z,30.37
2019-02-14T07:28:42.488Z,30.67
2019-02-14T07:31:12.769Z,30.50
2019-02-14T07:33:42.929Z,34.67
2019-02-14T07:36:13.137Z,32.60
2019-02-14T07:38:43.551Z,32.10
2019-02-14T07:41:13.569Z,30.60
2019-02-14T07:43:43.905Z,31.57
2019-02-14T07:46:22.348Z,32.93
2019-02-14T07:48:45.772Z,35.17
2019-02-14T07:51:15.740Z,33.00
2019-02-14T07:53:46.033Z,32.50
2019-02-14T07:56:16.215Z,33.20
2019-02-14T07:58:46.221Z,28.37
2019-02-14T08:01:16.419Z,32.27
2019-02-14T08:03:46.372Z,30.10
2019-02-14T08:06:16.322Z,29.23
2019-02-14T08:08:46.349Z,30.33
2019-02-14T08:11:16.680Z,31.23
2019-02-14T08:13:46.880Z,30.00
2019-02-14T08:16:17.361Z,32.97
2019-02-14T08:18:47.304Z,35.00
2019-02-14T08:21:17.280Z,31.73
2019-02-14T08:23:47.217Z,29.13
2019-02-14T08:26:17.207Z,28.27
2019-02-14T08:28:47.763Z,29.37
2019-02-14T08:31:17.682Z,30.07
2019-02-14T08:33:47.682Z,32.97
2019-02-14T08:36:17.667Z,29.80
2019-02-14T08:38:47.682Z,31.47
2019-02-14T08:41:17.660Z,30.07
2019-02-14T08:43:47.597Z,32.23
2019-02-14T08:46:18.743Z,33.23
2019-02-14T08:48:49.157Z,32.20
2019-02-14T08:51:19.417Z,32.87
2019-02-14T08:53:49.458Z,31.07
2019-02-14T08:56:19.763Z,28.40
2019-02-14T08:58:49.707Z,30.63
2019-02-14T09:01:19.631Z,30.77
2019-02-14T09:03:50.429Z,34.50
2019-02-14T09:06:20.405Z,34.67
2019-02-14T09:08:50.372Z,33.23
2019-02-14T09:11:20.556Z,31.80
2019-02-14T09:13:50.512Z,29.80
2019-02-14T09:16:20.565Z,29.57
2019-02-14T09:18:50.498Z,29.63
2019-02-14T09:21:20.480Z,29.87
2019-02-14T09:23:50.438Z,29.10
2019-02-14T09:26:20.462Z,29.80
2019-02-14T09:28:50.431Z,32.93
2019-02-14T09:31:20.780Z,29.47
2019-02-14T09:33:51.025Z,32.60
2019-02-14T09:36:21.488Z,31.90
2019-02-14T09:38:52.035Z,28.33
2019-02-14T09:41:22.051Z,29.77
2019-02-14T09:43:51.996Z,29.63
2019-02-14T09:46:22.339Z,29.20
2019-02-14T09:48:52.294Z,30.87
2019-02-14T09:51:22.291Z,28.17
2019-02-14T09:53:52.621Z,25.53
2019-02-14T09:56:22.842Z,26.27
2019-02-14T09:58:52.804Z,26.87
2019-02-14T10:01:23.102Z,26.20
2019-02-14T10:03:53.137Z,29.10
2019-02-14T10:06:23.347Z,27.60
2019-02-14T10:08:53.588Z,29.00
2019-02-14T10:11:23.631Z,29.40
2019-02-14T10:13:53.720Z,25.97
2019-02-14T10:16:23.655Z,31.40
2019-02-14T10:18:53.633Z,27.90
2019-02-14T10:21:23.614Z,30.43
2019-02-14T10:23:53.870Z,25.97
2019-02-14T10:26:24.015Z,27.03
2019-02-14T10:28:54.200Z,26.63
2019-02-14T10:31:24.103Z,26.77
2019-02-14T10:33:54.069Z,26.70
2019-02-14T10:36:24.019Z,24.77
2019-02-14T10:38:54.219Z,24.50
2019-02-14T10:41:24.293Z,23.67
2019-02-14T10:43:54.678Z,21.47
2019-02-14T10:46:24.622Z,24.30
2019-02-14T10:48:55.016Z,22.70
2019-02-14T10:51:25.025Z,22.00
2019-02-14T10:53:55.102Z,28.77
2019-02-14T10:56:25.045Z,20.47
2019-02-14T10:58:55.240Z,19.20
2019-02-14T11:01:29.676Z,23.57
2019-02-14T11:04:01.151Z,21.77
2019-02-14T11:06:31.090Z,18.80
2019-02-14T11:09:02.050Z,22.90
2019-02-14T11:11:32.560Z,22.00
2019-02-14T11:14:02.566Z,16.03
2019-02-14T11:16:32.686Z,19.50
2019-02-14T11:19:02.803Z,21.37
2019-02-14T11:21:32.821Z,20.47
2019-02-14T11:24:02.907Z,16.13
2019-02-14T11:26:32.985Z,19.73
2019-02-14T11:29:02.978Z,23.90
2019-02-14T11:31:34.662Z,19.87
2019-02-14T11:34:07.187Z,21.60
2019-02-14T11:36:37.196Z,23.63
2019-02-14T11:39:10.990Z,21.07
2019-02-14T11:41:41.293Z,21.33
2019-02-14T11:44:11.545Z,20.87
2019-02-14T11:46:41.501Z,21.83
2019-02-14T11:49:11.651Z,24.10
2019-02-14T11:51:41.623Z,21.70
2019-02-14T11:54:11.641Z,21.93
2019-02-14T11:56:41.866Z,27.00
2019-02-14T11:59:12.269Z,22.00
2019-02-14T12:01:42.592Z,21.90
2019-02-14T12:04:12.814Z,33.60
2019-02-14T12:06:42.891Z,23.47
2019-02-14T12:09:12.897Z,21.00
2019-02-14T12:11:42.898Z,25.90
2019-02-14T12:14:12.934Z,20.50
2019-02-14T12:16:43.131Z,22.27
2019-02-14T12:19:13.340Z,23.87
2019-02-14T12:21:43.393Z,20.00
2019-02-14T12:24:13.405Z,27.30
2019-02-14T12:26:43.419Z,26.07
2019-02-14T12:29:13.716Z,23.60
2019-02-14T12:31:43.645Z,21.90
2019-02-14T12:34:13.816Z,22.77
2019-02-14T12:36:43.834Z,21.57
2019-02-14T12:39:13.893Z,24.80
2019-02-14T12:41:44.476Z,20.33
2019-02-14T12:44:14.776Z,22.23
2019-02-14T12:46:44.991Z,20.90
2019-02-14T12:49:15.014Z,19.03
2019-02-14T12:51:44.946Z,20.23
2019-02-14T12:54:14.955Z,23.93
2019-02-14T12:56:45.050Z,21.40
2019-02-14T12:59:15.084Z,23.10
2019-02-14T13:01:45.272Z,27.70
2019-02-14T13:04:15.231Z,19.27
2019-02-14T13:06:45.212Z,19.73
2019-02-14T13:09:19.927Z,18.17
2019-02-14T13:11:48.026Z,19.73
2019-02-14T13:14:18.089Z,18.53
2019-02-14T13:16:48.155Z,20.97
2019-02-14T13:19:18.460Z,18.90
2019-02-14T13:21:48.443Z,18.07
2019-02-14T13:24:18.665Z,18.97
2019-02-14T13:26:48.971Z,18.60
2019-02-14T13:29:18.985Z,19.90
2019-02-14T13:31:49.179Z,21.70
2019-02-14T13:34:19.220Z,23.23
2019-02-14T13:36:49.173Z,20.30
2019-02-14T13:39:19.190Z,20.37
2019-02-14T13:41:49.372Z,21.33
2019-02-14T13:44:19.380Z,22.10
2019-02-14T13:46:49.340Z,19.93
2019-02-14T13:49:19.395Z,20.97
2019-02-14T13:51:49.414Z,20.80
2019-02-14T13:54:19.365Z,20.57
2019-02-14T13:56:54.039Z,21.57
2019-02-14T13:59:21.365Z,19.10
2019-02-14T14:01:51.381Z,19.90
2019-02-14T14:04:21.367Z,20.03
2019-02-14T14:06:51.307Z,20.43
2019-02-14T14:09:21.283Z,24.53
2019-02-14T14:11:51.293Z,20.57
2019-02-14T14:14:21.236Z,21.57
2019-02-14T14:16:51.267Z,20.53
2019-02-14T14:19:21.195Z,20.10
2019-02-14T14:21:51.174Z,19.77
2019-02-14T14:24:21.145Z,22.43
2019-02-14T14:26:51.138Z,19.83
2019-02-14T14:29:21.262Z,18.53
2019-02-14T14:31:51.240Z,25.43
2019-02-14T14:34:21.154Z,18.77
2019-02-14T14:36:51.102Z,19.80
2019-02-14T14:39:21.023Z,19.50
2019-02-14T14:41:50.942Z,18.67
2019-02-14T14:44:27.299Z,18.53
2019-02-14T14:47:00.415Z,23.40
2019-02-14T14:49:30.591Z,17.43
2019-02-14T14:52:00.559Z,18.03
2019-02-14T14:54:30.558Z,17.53
2019-02-14T14:57:00.538Z,21.93
2019-02-14T14:59:30.475Z,19.47
2019-02-14T15:02:00.414Z,23.13
2019-02-14T15:04:30.355Z,19.80
2019-02-14T15:07:00.494Z,22.00
2019-02-14T15:09:30.512Z,19.97
2019-02-14T15:12:00.473Z,20.47
2019-02-14T15:14:30.377Z,21.10
2019-02-14T15:17:00.362Z,21.63
2019-02-14T15:19:30.453Z,20.03
2019-02-14T15:22:00.537Z,23.73
2019-02-14T15:24:30.492Z,21.83
2019-02-14T15:27:00.504Z,22.27
2019-02-14T15:29:30.673Z,19.50
2019-02-14T15:32:00.655Z,23.93
2019-02-14T15:34:30.688Z,21.67
2019-02-14T15:37:00.636Z,23.87
2019-02-14T15:39:30.674Z,20.53
2019-02-14T15:42:00.826Z,25.23
2019-02-14T15:44:30.842Z,23.33
2019-02-14T15:47:01.097Z,24.87
2019-02-14T15:49:31.115Z,32.30
2019-02-14T15:52:03.219Z,25.67
2019-02-14T15:54:33.687Z,20.97
2019-02-14T15:57:04.686Z,19.90
2019-02-14T15:59:34.762Z,23.87
2019-02-14T16:02:06.172Z,19.87
2019-02-14T16:04:37.157Z,20.50
2019-02-14T16:07:07.633Z,22.17
2019-02-14T16:09:38.854Z,19.90
2019-02-14T16:12:09.753Z,17.63
2019-02-14T16:14:40.677Z,24.23
2019-02-14T16:17:13.628Z,21.23
2019-02-14T16:19:43.113Z,20.13
2019-02-14T16:22:13.319Z,20.20
2019-02-14T16:24:43.460Z,18.13
2019-02-14T16:27:13.509Z,20.73
2019-02-14T16:29:43.555Z,22.67
2019-02-14T16:32:13.548Z,20.87
2019-02-14T16:34:43.590Z,21.10
2019-02-14T16:37:13.783Z,21.03
2019-02-14T16:39:51.606Z,20.70
2019-02-14T16:42:15.486Z,23.30
2019-02-14T16:44:45.421Z,21.00
2019-02-14T16:47:15.418Z,21.90
2019-02-14T16:49:45.344Z,25.50
2019-02-14T16:52:15.459Z,20.37
2019-02-14T16:54:45.511Z,20.93
2019-02-14T16:57:15.540Z,20.00
2019-02-14T16:59:45.520Z,21.67
2019-02-14T17:02:15.722Z,23.93
2019-02-14T17:04:45.746Z,25.57
2019-02-14T17:07:15.866Z,23.37
2019-02-14T17:09:46.180Z,22.80
2019-02-14T17:12:16.110Z,27.30
2019-02-14T17:14:46.078Z,27.13
2019-02-14T17:17:16.117Z,27.13
2019-02-14T17:19:46.324Z,22.40
2019-02-14T17:22:16.347Z,26.47
2019-02-14T17:24:46.432Z,24.00
2019-02-14T17:27:16.292Z,27.93
2019-02-14T17:29:46.785Z,23.00
2019-02-14T17:32:16.710Z,24.57
2019-02-14T17:34:47.017Z,27.67
2019-02-14T17:37:17.068Z,26.17
2019-02-14T17:39:47.105Z,28.43
2019-02-14T17:42:17.230Z,29.00
2019-02-14T17:44:47.248Z,32.33
2019-02-14T17:47:17.173Z,56.67
2019-02-14T17:49:47.210Z,34.70
2019-02-14T17:52:17.164Z,24.63
2019-02-14T17:54:47.100Z,26.93
2019-02-14T17:57:17.084Z,25.83
2019-02-14T17:59:47.294Z,26.10
2019-02-14T18:02:18.447Z,27.93
2019-02-14T18:04:48.403Z,25.23
2019-02-14T18:07:36.299Z,26.87
2019-02-14T18:10:08.143Z,25.23
2019-02-14T18:12:52.482Z,20.47
2019-02-14T18:15:22.587Z,22.27
2019-02-14T18:18:01.600Z,25.43
2019-02-14T18:20:31.583Z,24.50
2019-02-14T18:23:01.516Z,19.07
2019-02-14T18:25:31.487Z,23.80
2019-02-14T18:28:01.396Z,23.60
2019-02-14T18:30:31.912Z,21.60
2019-02-14T18:33:01.915Z,34.33
2019-02-14T18:35:32.393Z,47.07
2019-02-14T18:38:02.548Z,25.40
2019-02-14T18:40:32.560Z,22.63
2019-02-14T18:43:02.470Z,18.97
2019-02-14T18:45:32.626Z,20.70
2019-02-14T18:48:02.801Z,23.20
2019-02-14T18:50:34.184Z,18.10
2019-02-14T18:53:04.875Z,23.10
2019-02-14T18:55:34.824Z,20.87
2019-02-14T18:58:04.918Z,27.03
2019-02-14T19:00:35.147Z,24.03
2019-02-14T19:03:05.239Z,19.57
2019-02-14T19:05:35.482Z,19.70
2019-02-14T19:08:05.659Z,20.07
2019-02-14T19:10:35.664Z,21.47
2019-02-14T19:13:05.984Z,23.20
2019-02-14T19:15:36.105Z,21.17
2019-02-14T19:18:06.553Z,19.03
2019-02-14T19:20:36.513Z,21.50
2019-02-14T19:23:06.735Z,26.80
2019-02-14T19:25:36.880Z,18.47
2019-02-14T19:28:06.898Z,19.33
2019-02-14T19:30:37.225Z,17.83
2019-02-14T19:33:07.191Z,20.33
2019-02-14T19:35:37.755Z,20.07
2019-02-14T19:38:08.071Z,18.10
2019-02-14T19:40:38.073Z,19.43
2019-02-14T19:43:11.029Z,20.03
2019-02-14T19:45:43.745Z,19.40
2019-02-14T19:48:14.038Z,17.03
2019-02-14T19:50:44.112Z,20.37
2019-02-14T19:53:14.462Z,17.33
2019-02-14T19:55:44.590Z,17.80
2019-02-14T19:58:15.440Z,17.93
2019-02-14T20:00:45.743Z,17.10
2019-02-14T20:03:15.979Z,18.23
2019-02-14T20:05:46.143Z,15.70
2019-02-14T20:08:16.310Z,14.50
2019-02-14T20:10:46.771Z,23.73
2019-02-14T20:13:17.660Z,21.40
2019-02-14T20:15:48.086Z,54.77
2019-02-14T20:18:18.676Z,25.23
2019-02-14T20:20:48.816Z,19.50
2019-02-14T20:23:18.829Z,18.40
2019-02-14T20:25:49.269Z,16.43
2019-02-14T20:28:19.187Z,20.00
2019-02-14T20:30:49.330Z,17.27
2019-02-14T20:33:19.336Z,16.73
2019-02-14T20:35:49.917Z,20.03
2019-02-14T20:38:20.301Z,16.83
2019-02-14T20:40:50.294Z,17.27
2019-02-14T20:43:20.374Z,19.23
2019-02-14T20:45:50.455Z,32.60
2019-02-14T20:48:20.472Z,16.27
2019-02-14T20:50:50.537Z,24.70
2019-02-14T20:53:20.572Z,21.27
2019-02-14T20:55:50.615Z,15.73
2019-02-14T20:58:20.681Z,12.87
2019-02-14T21:00:50.656Z,45.57
2019-02-14T21:03:20.744Z,19.90
2019-02-14T21:05:50.848Z,17.90
2019-02-14T21:08:21.122Z,13.30
2019-02-14T21:10:51.205Z,16.67
2019-02-14T21:13:21.361Z,15.43
2019-02-14T21:15:51.483Z,16.23
2019-02-14T21:18:21.434Z,14.80
2019-02-14T21:20:51.719Z,12.63
2019-02-14T21:23:21.758Z,11.50
2019-02-14T21:25:52.121Z,15.70
2019-02-14T21:28:23.286Z,12.17
2019-02-14T21:30:54.827Z,11.43
2019-02-14T21:33:26.837Z,17.20
2019-02-14T21:35:57.571Z,13.80
2019-02-14T21:38:27.704Z,12.87
2019-02-14T21:40:57.891Z,10.60
2019-02-14T21:43:29.364Z,15.50
2019-02-14T21:46:00.968Z,12.97
2019-02-14T21:48:31.282Z,11.13
2019-02-14T21:51:01.385Z,12.77
2019-02-14T21:53:31.650Z,14.87
2019-02-14T21:56:05.865Z,12.30
2019-02-14T21:58:36.745Z,10.70
2019-02-14T22:01:10.562Z,12.17
2019-02-14T22:03:40.539Z,10.40
2019-02-14T22:06:12.249Z,11.83
2019-02-14T22:08:43.946Z,13.33
2019-02-14T22:11:13.954Z,13.80
2019-02-14T22:13:44.226Z,18.17
2019-02-14T22:16:14.537Z,14.23
2019-02-14T22:18:44.887Z,21.70
2019-02-14T22:21:22.236Z,15.33
2019-02-14T22:23:52.370Z,23.30
2019-02-14T22:26:22.369Z,17.20
2019-02-14T22:28:52.385Z,12.93
2019-02-14T22:31:22.355Z,12.47
2019-02-14T22:33:53.294Z,20.60
2019-02-14T22:36:24.927Z,12.73
2019-02-14T22:38:55.826Z,14.93
2019-02-14T22:41:26.186Z,16.33
2019-02-14T22:43:57.757Z,15.03
2019-02-14T22:46:27.745Z,14.67
2019-02-14T22:49:00.370Z,12.40
2019-02-14T22:51:31.001Z,13.20
2019-02-14T22:54:01.672Z,12.03
2019-02-14T22:56:32.665Z,21.43
2019-02-14T22:59:03.261Z,14.10
2019-02-14T23:01:35.042Z,13.37
2019-02-14T23:04:08.204Z,12.40
2019-02-14T23:06:39.463Z,12.03
2019-02-14T23:09:12.066Z,15.17
2019-02-14T23:11:42.243Z,13.27
2019-02-14T23:14:12.502Z,12.73
2019-02-14T23:16:43.660Z,25.37
2019-02-14T23:19:14.569Z,32.27
2019-02-14T23:21:45.917Z,15.10
2019-02-14T23:24:15.903Z,14.07
2019-02-14T23:26:47.195Z,13.40
2019-02-14T23:29:17.209Z,16.93
2019-02-14T23:31:47.495Z,12.53
2019-02-14T23:34:18.795Z,18.00
2019-02-14T23:36:50.869Z,15.13
2019-02-14T23:39:21.083Z,13.80
2019-02-14T23:41:51.010Z,14.17
2019-02-14T23:44:21.966Z,21.67
2019-02-14T23:46:52.807Z,16.23
2019-02-14T23:49:23.589Z,20.67
2019-02-14T23:51:53.776Z,13.40
2019-02-14T23:54:23.991Z,12.70
2019-02-14T23:56:53.932Z,16.27
2019-02-14T23:59:23.911Z,13.03
